sensor_id;sensor_type;location;lat;lon;timestamp;pressure;altitude;pressure_sealevel;temperature;humidity
39449;BME280;25151;45.566;9.382;2023-03-23T00:01:20;99645.91;;;19.78;56.60
39449;BME280;25151;45.566;9.382;2023-03-23T00:04:21;99655.06;;;19.79;56.68
39449;BME280;25151;45.566;9.382;2023-03-23T00:07:23;99654.75;;;19.77;56.44
39449;BME280;25151;45.566;9.382;2023-03-23T00:10:27;99651.50;;;19.78;56.54
39449;BME280;25151;45.566;9.382;2023-03-23T00:13:33;99656.31;;;19.78;56.60
39449;BME280;25151;45.566;9.382;2023-03-23T00:16:36;99665.06;;;19.80;56.52
39449;BME280;25151;45.566;9.382;2023-03-23T00:19:38;99657.97;;;19.75;56.48
39449;BME280;25151;45.566;9.382;2023-03-23T00:22:54;99647.56;;;19.76;56.55
39449;BME280;25151;45.566;9.382;2023-03-23T00:26:00;99651.94;;;19.77;56.48
39449;BME280;25151;45.566;9.382;2023-03-23T00:29:07;99648.81;;;19.75;56.55
39449;BME280;25151;45.566;9.382;2023-03-23T00:32:09;99653.63;;;19.74;56.48
39449;BME280;25151;45.566;9.382;2023-03-23T00:35:13;99655.97;;;19.76;56.49
39449;BME280;25151;45.566;9.382;2023-03-23T00:38:14;99655.97;;;19.76;56.48
39449;BME280;25151;45.566;9.382;2023-03-23T00:45:14;99660.34;;;19.77;56.33
39449;BME280;25151;45.566;9.382;2023-03-23T00:48:15;99654.41;;;19.75;56.60
39449;BME280;25151;45.566;9.382;2023-03-23T00:51:17;99648.81;;;19.75;56.47
39449;BME280;25151;45.566;9.382;2023-03-23T00:54:19;99640.09;;;19.73;56.50
39449;BME280;25151;45.566;9.382;2023-03-23T00:57:20;99637.72;;;19.71;56.52
39449;BME280;25151;45.566;9.382;2023-03-23T01:00:25;99632.91;;;19.72;56.59
39449;BME280;25151;45.566;9.382;2023-03-23T01:03:26;99631.34;;;19.71;56.07
39449;BME280;25151;45.566;9.382;2023-03-23T01:06:32;99620.16;;;19.71;56.66
39449;BME280;25151;45.566;9.382;2023-03-23T01:09:36;99621.72;;;19.72;56.42
39449;BME280;25151;45.566;9.382;2023-03-23T01:16:37;99616.13;;;19.72;56.43
39449;BME280;25151;45.566;9.382;2023-03-23T01:19:37;99613.00;;;19.70;56.50
39449;BME280;25151;45.566;9.382;2023-03-23T01:22:39;99605.84;;;19.69;56.47
39449;BME280;25151;45.566;9.382;2023-03-23T01:25:40;99604.63;;;19.70;56.40
39449;BME280;25151;45.566;9.382;2023-03-23T01:28:41;99594.78;;;19.65;56.53
39449;BME280;25151;45.566;9.382;2023-03-23T01:31:43;99599.47;;;19.68;56.73
39449;BME280;25151;45.566;9.382;2023-03-23T01:34:46;99595.56;;;19.65;56.58
39449;BME280;25151;45.566;9.382;2023-03-23T01:37:48;99595.09;;;19.67;56.36
39449;BME280;25151;45.566;9.382;2023-03-23T01:40:49;99590.63;;;19.70;56.64
39449;BME280;25151;45.566;9.382;2023-03-23T01:44:04;99592.66;;;19.69;56.62
39449;BME280;25151;45.566;9.382;2023-03-23T01:47:06;99588.72;;;19.67;56.61
39449;BME280;25151;45.566;9.382;2023-03-23T01:50:10;99581.22;;;19.63;56.57
39449;BME280;25151;45.566;9.382;2023-03-23T01:53:11;99580.00;;;19.64;56.61
39449;BME280;25151;45.566;9.382;2023-03-23T01:56:15;99582.81;;;19.64;56.53
39449;BME280;25151;45.566;9.382;2023-03-23T01:59:17;99590.41;;;19.64;56.68
39449;BME280;25151;45.566;9.382;2023-03-23T02:02:22;99580.91;;;19.61;56.89
39449;BME280;25151;45.566;9.382;2023-03-23T02:05:34;99581.22;;;19.63;56.43
39449;BME280;25151;45.566;9.382;2023-03-23T02:08:39;99580.44;;;19.63;56.60
39449;BME280;25151;45.566;9.382;2023-03-23T02:11:42;99573.28;;;19.62;56.62
39449;BME280;25151;45.566;9.382;2023-03-23T02:14:44;99574.84;;;19.63;56.57
39449;BME280;25151;45.566;9.382;2023-03-23T02:18:07;99574.84;;;19.63;56.38
39449;BME280;25151;45.566;9.382;2023-03-23T02:24:50;99580.44;;;19.63;56.61
39449;BME280;25151;45.566;9.382;2023-03-23T02:34:21;99581.31;;;19.60;56.68
39449;BME280;25151;45.566;9.382;2023-03-23T02:37:37;99573.38;;;19.58;56.58
39449;BME280;25151;45.566;9.382;2023-03-23T02:40:42;99571.81;;;19.57;56.44
39449;BME280;25151;45.566;9.382;2023-03-23T02:43:46;99576.50;;;19.60;56.56
39449;BME280;25151;45.566;9.382;2023-03-23T02:46:48;99581.31;;;19.60;56.42
39449;BME280;25151;45.566;9.382;2023-03-23T02:49:52;99573.03;;;19.56;56.39
39449;BME280;25151;45.566;9.382;2023-03-23T02:52:56;99579.84;;;19.55;56.58
39449;BME280;25151;45.566;9.382;2023-03-23T02:56:00;99574.25;;;19.55;56.54
39449;BME280;25151;45.566;9.382;2023-03-23T02:59:05;99583.00;;;19.57;56.54
39449;BME280;25151;45.566;9.382;2023-03-23T03:02:14;99573.47;;;19.55;56.54
39449;BME280;25151;45.566;9.382;2023-03-23T03:11:50;99572.69;;;19.54;56.57
39449;BME280;25151;45.566;9.382;2023-03-23T03:15:06;99570.25;;;19.56;56.68
39449;BME280;25151;45.566;9.382;2023-03-23T03:18:23;99568.00;;;19.51;56.58
39449;BME280;25151;45.566;9.382;2023-03-23T03:21:27;99572.38;;;19.52;56.47
39449;BME280;25151;45.566;9.382;2023-03-23T03:24:31;99578.28;;;19.54;56.63
39449;BME280;25151;45.566;9.382;2023-03-23T03:27:33;99578.28;;;19.54;56.53
39449;BME280;25151;45.566;9.382;2023-03-23T03:30:37;99573.59;;;19.51;56.70
39449;BME280;25151;45.566;9.382;2023-03-23T03:33:38;99588.81;;;19.50;56.67
39449;BME280;25151;45.566;9.382;2023-03-23T03:36:41;99585.13;;;19.53;56.69
39449;BME280;25151;45.566;9.382;2023-03-23T03:39:43;99583.22;;;19.50;56.51
39449;BME280;25151;45.566;9.382;2023-03-23T03:42:45;99592.72;;;19.53;56.73
39449;BME280;25151;45.566;9.382;2023-03-23T03:45:49;99590.03;;;19.49;56.57
39449;BME280;25151;45.566;9.382;2023-03-23T03:48:51;99597.88;;;19.54;56.58
39449;BME280;25151;45.566;9.382;2023-03-23T03:51:53;99592.84;;;19.49;56.44
39449;BME280;25151;45.566;9.382;2023-03-23T03:54:56;99589.25;;;19.49;56.55
39449;BME280;25151;45.566;9.382;2023-03-23T03:57:58;99587.25;;;19.49;56.46
39449;BME280;25151;45.566;9.382;2023-03-23T04:01:01;99592.84;;;19.49;56.66
39449;BME280;25151;45.566;9.382;2023-03-23T04:04:04;99591.28;;;19.48;56.54
39449;BME280;25151;45.566;9.382;2023-03-23T04:07:11;99602.00;;;19.50;56.76
39449;BME280;25151;45.566;9.382;2023-03-23T04:10:14;99596.88;;;19.48;56.48
39449;BME280;25151;45.566;9.382;2023-03-23T04:13:16;99600.00;;;19.50;56.62
39449;BME280;25151;45.566;9.382;2023-03-23T04:16:18;99610.41;;;19.50;56.54
39449;BME280;25151;45.566;9.382;2023-03-23T04:19:20;99603.69;;;19.47;56.57
39449;BME280;25151;45.566;9.382;2023-03-23T04:22:26;99612.06;;;19.47;56.54
39449;BME280;25151;45.566;9.382;2023-03-23T04:25:31;99611.28;;;19.47;56.58
39449;BME280;25151;45.566;9.382;2023-03-23T04:28:33;99607.72;;;19.46;56.63
39449;BME280;25151;45.566;9.382;2023-03-23T04:31:35;99616.09;;;19.46;56.90
39449;BME280;25151;45.566;9.382;2023-03-23T04:34:37;99614.84;;;19.47;56.83
39449;BME280;25151;45.566;9.382;2023-03-23T04:37:41;99618.91;;;19.46;56.86
39449;BME280;25151;45.566;9.382;2023-03-23T04:40:43;99616.09;;;19.46;56.64
39449;BME280;25151;45.566;9.382;2023-03-23T04:43:46;99621.69;;;19.46;56.66
39449;BME280;25151;45.566;9.382;2023-03-23T04:46:53;99616.97;;;19.43;56.71
39449;BME280;25151;45.566;9.382;2023-03-23T04:49:58;99623.25;;;19.47;56.62
39449;BME280;25151;45.566;9.382;2023-03-23T04:53:00;99624.38;;;19.50;56.57
39449;BME280;25151;45.566;9.382;2023-03-23T04:56:06;99629.50;;;19.51;56.56
39449;BME280;25151;45.566;9.382;2023-03-23T04:59:07;99631.09;;;19.52;56.67
39449;BME280;25151;45.566;9.382;2023-03-23T05:02:12;99633.44;;;19.54;56.71
39449;BME280;25151;45.566;9.382;2023-03-23T05:05:14;99627.41;;;19.55;56.78
39449;BME280;25151;45.566;9.382;2023-03-23T05:08:26;99628.97;;;19.56;56.51
39449;BME280;25151;45.566;9.382;2023-03-23T05:11:28;99617.78;;;19.56;56.68
39449;BME280;25151;45.566;9.382;2023-03-23T05:14:29;99630.53;;;19.57;56.79
39449;BME280;25151;45.566;9.382;2023-03-23T05:17:32;99626.97;;;19.57;56.42
39449;BME280;25151;45.566;9.382;2023-03-23T05:20:34;99630.53;;;19.57;56.84
39449;BME280;25151;45.566;9.382;2023-03-23T05:23:35;99627.75;;;19.57;56.73
39449;BME280;25151;45.566;9.382;2023-03-23T05:26:38;99623.72;;;19.58;56.92
39449;BME280;25151;45.566;9.382;2023-03-23T05:29:40;99628.06;;;19.59;56.76
39449;BME280;25151;45.566;9.382;2023-03-23T05:32:43;99630.88;;;19.59;56.73
39449;BME280;25151;45.566;9.382;2023-03-23T05:35:49;99626.84;;;19.60;56.84
39449;BME280;25151;45.566;9.382;2023-03-23T05:38:51;99629.66;;;19.60;56.80
39449;BME280;25151;45.566;9.382;2023-03-23T05:41:55;99627.63;;;19.61;56.85
39449;BME280;25151;45.566;9.382;2023-03-23T05:44:58;99634.03;;;19.61;56.92
39449;BME280;25151;45.566;9.382;2023-03-23T05:48:00;99636.84;;;19.61;56.97
39449;BME280;25151;45.566;9.382;2023-03-23T05:51:02;99634.81;;;19.62;56.94
39449;BME280;25151;45.566;9.382;2023-03-23T05:54:04;99640.41;;;19.62;57.06
39449;BME280;25151;45.566;9.382;2023-03-23T05:57:06;99634.03;;;19.61;56.77
39449;BME280;25151;45.566;9.382;2023-03-23T06:00:09;99635.59;;;19.62;56.92
39449;BME280;25151;45.566;9.382;2023-03-23T06:03:14;99646.00;;;19.62;56.99
39449;BME280;25151;45.566;9.382;2023-03-23T06:06:16;99641.97;;;19.63;56.90
39449;BME280;25151;45.566;9.382;2023-03-23T06:09:19;99653.94;;;19.63;56.96
39449;BME280;25151;45.566;9.382;2023-03-23T06:12:21;99650.81;;;19.61;56.95
39449;BME280;25151;45.566;9.382;2023-03-23T06:15:23;99648.34;;;19.63;56.78
39449;BME280;25151;45.566;9.382;2023-03-23T06:18:25;99653.94;;;19.63;57.08
39449;BME280;25151;45.566;9.382;2023-03-23T06:21:27;99653.94;;;19.63;56.96
39449;BME280;25151;45.566;9.382;2023-03-23T06:24:28;99651.16;;;19.63;57.03
39449;BME280;25151;45.566;9.382;2023-03-23T06:27:30;99653.50;;;19.65;56.97
39449;BME280;25151;45.566;9.382;2023-03-23T06:30:34;99654.75;;;19.64;56.87
39449;BME280;25151;45.566;9.382;2023-03-23T06:33:36;99648.34;;;19.63;57.09
39449;BME280;25151;45.566;9.382;2023-03-23T06:36:38;99653.06;;;19.67;57.07
39449;BME280;25151;45.566;9.382;2023-03-23T06:39:40;99664.25;;;19.67;56.84
39449;BME280;25151;45.566;9.382;2023-03-23T06:42:42;99662.69;;;19.65;56.88
39449;BME280;25151;45.566;9.382;2023-03-23T06:45:43;99669.84;;;19.67;56.90
39449;BME280;25151;45.566;9.382;2023-03-23T06:48:46;99666.63;;;19.68;56.75
39449;BME280;25151;45.566;9.382;2023-03-23T06:51:50;99672.41;;;19.74;56.76
39449;BME280;25151;45.566;9.382;2023-03-23T06:54:52;99668.75;;;19.77;56.57
39449;BME280;25151;45.566;9.382;2023-03-23T06:57:53;99669.41;;;19.81;56.64
39449;BME280;25151;45.566;9.382;2023-03-23T07:00:57;99666.50;;;19.84;56.72
39449;BME280;25151;45.566;9.382;2023-03-23T07:04:00;99673.88;;;19.91;56.37
39449;BME280;25151;45.566;9.382;2023-03-23T07:07:01;99674.88;;;19.97;56.58
39449;BME280;25151;45.566;9.382;2023-03-23T07:10:05;99681.47;;;20.03;56.45
39449;BME280;25151;45.566;9.382;2023-03-23T07:13:16;99690.53;;;20.07;56.32
39449;BME280;25151;45.566;9.382;2023-03-23T07:16:22;99687.97;;;20.13;56.12
39449;BME280;25151;45.566;9.382;2023-03-23T07:19:43;99695.38;;;20.20;56.23
39449;BME280;25151;45.566;9.382;2023-03-23T07:22:47;99689.97;;;20.25;56.07
39449;BME280;25151;45.566;9.382;2023-03-23T07:25:50;99691.00;;;20.31;56.10
39449;BME280;25151;45.566;9.382;2023-03-23T07:28:54;99694.78;;;20.37;56.18
39449;BME280;25151;45.566;9.382;2023-03-23T07:31:58;99704.97;;;20.44;56.10
39449;BME280;25151;45.566;9.382;2023-03-23T07:35:04;99696.00;;;20.49;55.88
39449;BME280;25151;45.566;9.382;2023-03-23T07:38:11;99699.81;;;20.55;55.82
39449;BME280;25151;45.566;9.382;2023-03-23T07:41:12;99698.78;;;20.62;55.85
39449;BME280;25151;45.566;9.382;2023-03-23T07:44:15;99701.03;;;20.67;55.65
39449;BME280;25151;45.566;9.382;2023-03-23T07:47:17;99715.34;;;20.69;55.42
39449;BME280;25151;45.566;9.382;2023-03-23T07:50:21;99714.88;;;20.71;55.77
39449;BME280;25151;45.566;9.382;2023-03-23T07:53:28;99720.47;;;20.71;55.39
39449;BME280;25151;45.566;9.382;2023-03-23T07:59:50;99728.00;;;20.74;55.34
39449;BME280;25151;45.566;9.382;2023-03-23T08:02:57;99732.81;;;20.73;55.36
39449;BME280;25151;45.566;9.382;2023-03-23T08:06:01;99736.84;;;20.72;55.58
39449;BME280;25151;45.566;9.382;2023-03-23T08:09:05;99737.63;;;20.73;55.48
39449;BME280;25151;45.566;9.382;2023-03-23T08:12:15;99738.88;;;20.72;55.52
39449;BME280;25151;45.566;9.382;2023-03-23T08:15:26;99736.09;;;20.72;55.52
39449;BME280;25151;45.566;9.382;2023-03-23T08:18:33;99737.97;;;20.75;55.23
39449;BME280;25151;45.566;9.382;2023-03-23T08:21:45;99742.00;;;20.74;55.47
39449;BME280;25151;45.566;9.382;2023-03-23T08:24:51;99750.41;;;20.74;55.17
39449;BME280;25151;45.566;9.382;2023-03-23T08:28:03;99751.19;;;20.74;55.27
39449;BME280;25151;45.566;9.382;2023-03-23T08:31:11;99750.41;;;20.74;55.20
39449;BME280;25151;45.566;9.382;2023-03-23T08:34:23;99752.00;;;20.75;55.36
39449;BME280;25151;45.566;9.382;2023-03-23T08:37:32;99761.63;;;20.74;55.12
39449;BME280;25151;45.566;9.382;2023-03-23T08:40:46;99766.00;;;20.75;55.07
39449;BME280;25151;45.566;9.382;2023-03-23T08:43:58;99761.63;;;20.74;55.12
39449;BME280;25151;45.566;9.382;2023-03-23T08:47:04;99758.50;;;20.72;55.01
39449;BME280;25151;45.566;9.382;2023-03-23T08:50:14;99756.91;;;20.71;54.94
39449;BME280;25151;45.566;9.382;2023-03-23T08:53:21;99752.53;;;20.70;55.25
39449;BME280;25151;45.566;9.382;2023-03-23T08:56:28;99769.34;;;20.70;55.34
39449;BME280;25151;45.566;9.382;2023-03-23T08:59:39;99769.34;;;20.70;55.28
39449;BME280;25151;45.566;9.382;2023-03-23T09:02:52;99756.91;;;20.71;55.31
39449;BME280;25151;45.566;9.382;2023-03-23T09:06:05;99760.06;;;20.73;55.27
39449;BME280;25151;45.566;9.382;2023-03-23T09:09:13;99761.31;;;20.72;54.97
39449;BME280;25151;45.566;9.382;2023-03-23T09:12:18;99760.06;;;20.73;54.88
39449;BME280;25151;45.566;9.382;2023-03-23T09:15:23;99762.84;;;20.73;54.95
39449;BME280;25151;45.566;9.382;2023-03-23T09:18:29;99763.22;;;20.75;54.79
39449;BME280;25151;45.566;9.382;2023-03-23T09:21:33;99762.84;;;20.73;54.89
39449;BME280;25151;45.566;9.382;2023-03-23T09:24:40;99761.31;;;20.72;55.02
39449;BME280;25151;45.566;9.382;2023-03-23T09:27:43;99767.22;;;20.74;55.10
39449;BME280;25151;45.566;9.382;2023-03-23T09:30:50;99761.31;;;20.72;54.96
39449;BME280;25151;45.566;9.382;2023-03-23T09:34:00;99757.25;;;20.73;55.12
39449;BME280;25151;45.566;9.382;2023-03-23T09:37:05;99761.19;;;20.75;54.92
39449;BME280;25151;45.566;9.382;2023-03-23T09:40:21;99756.69;;;20.78;55.13
39449;BME280;25151;45.566;9.382;2023-03-23T09:46:53;99749.84;;;20.79;55.09
39449;BME280;25151;45.566;9.382;2023-03-23T09:49:59;99748.63;;;20.80;54.98
39449;BME280;25151;45.566;9.382;2023-03-23T09:56:14;99738.97;;;20.81;55.26
39449;BME280;25151;45.566;9.382;2023-03-23T09:59:23;99737.28;;;20.83;55.25
39449;BME280;25151;45.566;9.382;2023-03-23T10:06:12;99743.97;;;20.86;55.27
39449;BME280;25151;45.566;9.382;2023-03-23T10:09:18;99737.16;;;20.87;55.17
39449;BME280;25151;45.566;9.382;2023-03-23T10:15:42;99745.09;;;20.88;55.31
39449;BME280;25151;45.566;9.382;2023-03-23T10:19:23;99745.88;;;20.89;55.39
39449;BME280;25151;45.566;9.382;2023-03-23T10:22:32;99745.44;;;20.91;55.13
39449;BME280;25151;45.566;9.382;2023-03-23T10:25:42;99739.38;;;20.92;55.34
39449;BME280;25151;45.566;9.382;2023-03-23T10:28:49;99734.56;;;20.93;55.41
39449;BME280;25151;45.566;9.382;2023-03-23T10:32:15;99731.28;;;20.94;55.20
39449;BME280;25151;45.566;9.382;2023-03-23T10:35:26;99727.28;;;20.95;55.37
39449;BME280;25151;45.566;9.382;2023-03-23T10:38:44;99716.84;;;20.96;55.08
39449;BME280;25151;45.566;9.382;2023-03-23T10:41:47;99717.63;;;20.96;55.15
39449;BME280;25151;45.566;9.382;2023-03-23T10:44:50;99717.63;;;20.96;55.41
39449;BME280;25151;45.566;9.382;2023-03-23T10:51:10;99720.72;;;20.98;55.44
39449;BME280;25151;45.566;9.382;2023-03-23T10:54:27;99712.31;;;20.98;55.56
39449;BME280;25151;45.566;9.382;2023-03-23T10:57:30;99706.72;;;20.98;55.54
39449;BME280;25151;45.566;9.382;2023-03-23T11:00:44;99705.50;;;20.99;55.41
39449;BME280;25151;45.566;9.382;2023-03-23T11:03:48;99709.84;;;21.00;55.16
39449;BME280;25151;45.566;9.382;2023-03-23T11:06:54;99708.63;;;21.01;55.68
39449;BME280;25151;45.566;9.382;2023-03-23T11:10:11;99705.50;;;20.99;55.28
39449;BME280;25151;45.566;9.382;2023-03-23T11:13:29;99707.06;;;21.00;55.52
39449;BME280;25151;45.566;9.382;2023-03-23T11:16:42;99695.84;;;21.00;55.21
39449;BME280;25151;45.566;9.382;2023-03-23T11:19:45;99689.47;;;21.00;55.27
39449;BME280;25151;45.566;9.382;2023-03-23T11:22:47;99683.06;;;20.99;55.19
39449;BME280;25151;45.566;9.382;2023-03-23T11:26:16;99690.69;;;20.99;55.33
39449;BME280;25151;45.566;9.382;2023-03-23T11:29:25;99689.91;;;20.98;55.18
39449;BME280;25151;45.566;9.382;2023-03-23T11:32:29;99685.88;;;20.99;55.11
39449;BME280;25151;45.566;9.382;2023-03-23T11:35:32;99688.22;;;21.01;55.11
39449;BME280;25151;45.566;9.382;2023-03-23T11:38:34;99684.63;;;21.00;55.14
39449;BME280;25151;45.566;9.382;2023-03-23T11:41:38;99679.81;;;21.01;55.39
39449;BME280;25151;45.566;9.382;2023-03-23T11:44:44;99678.25;;;21.00;55.40
39449;BME280;25151;45.566;9.382;2023-03-23T11:51:13;99680.84;;;20.94;55.58
39449;BME280;25151;45.566;9.382;2023-03-23T11:54:58;99664.00;;;20.94;55.51
39449;BME280;25151;45.566;9.382;2023-03-23T11:58:03;99676.81;;;20.95;55.46
39449;BME280;25151;45.566;9.382;2023-03-23T12:01:42;99663.88;;;20.98;55.35
39449;BME280;25151;45.566;9.382;2023-03-23T12:05:11;99660.66;;;20.99;55.50
39449;BME280;25151;45.566;9.382;2023-03-23T12:08:32;99660.19;;;21.01;55.33
39449;BME280;25151;45.566;9.382;2023-03-23T12:11:44;99657.25;;;21.04;55.61
39449;BME280;25151;45.566;9.382;2023-03-23T12:15:08;99654.44;;;21.04;55.28
39449;BME280;25151;45.566;9.382;2023-03-23T12:38:57;99628.97;;;21.11;55.64
39449;BME280;25151;45.566;9.382;2023-03-23T12:42:16;99622.69;;;21.07;55.58
39449;BME280;25151;45.566;9.382;2023-03-23T12:58:47;99603.84;;;21.08;55.59
39449;BME280;25151;45.566;9.382;2023-03-23T13:08:49;99586.91;;;21.11;55.94
39449;BME280;25151;45.566;9.382;2023-03-23T13:11:54;99580.03;;;21.12;55.80
39449;BME280;25151;45.566;9.382;2023-03-23T13:15:21;99570.84;;;21.12;55.51
39449;BME280;25151;45.566;9.382;2023-03-23T13:18:38;99570.38;;;21.13;55.81
39449;BME280;25151;45.566;9.382;2023-03-23T13:21:55;99571.97;;;21.15;55.89
39449;BME280;25151;45.566;9.382;2023-03-23T13:25:19;99567.28;;;21.11;55.83
39449;BME280;25151;45.566;9.382;2023-03-23T13:28:27;99568.53;;;21.10;55.66
39449;BME280;25151;45.566;9.382;2023-03-23T13:31:35;99564.59;;;21.08;55.51
39449;BME280;25151;45.566;9.382;2023-03-23T13:34:41;99557.09;;;21.05;55.94
39449;BME280;25151;45.566;9.382;2023-03-23T13:37:50;99564.41;;;21.02;55.91
39449;BME280;25151;45.566;9.382;2023-03-23T13:40:56;99554.13;;;20.99;55.96
39449;BME280;25151;45.566;9.382;2023-03-23T13:44:17;99544.13;;;20.98;55.94
39449;BME280;25151;45.566;9.382;2023-03-23T13:47:28;99549.31;;;21.00;55.78
39449;BME280;25151;45.566;9.382;2023-03-23T13:50:55;99542.28;;;20.95;55.72
39449;BME280;25151;45.566;9.382;2023-03-23T13:54:31;99538.22;;;20.96;55.84
39449;BME280;25151;45.566;9.382;2023-03-23T13:57:48;99536.66;;;20.95;55.50
39449;BME280;25151;45.566;9.382;2023-03-23T14:01:18;99525.47;;;20.95;55.66
39449;BME280;25151;45.566;9.382;2023-03-23T14:04:31;99520.75;;;20.92;55.92
39449;BME280;25151;45.566;9.382;2023-03-23T14:07:56;99513.59;;;20.91;55.75
39449;BME280;25151;45.566;9.382;2023-03-23T14:14:41;99516.72;;;20.93;55.57
39449;BME280;25151;45.566;9.382;2023-03-23T14:17:45;99517.19;;;20.92;55.63
39449;BME280;25151;45.566;9.382;2023-03-23T14:20:52;99506.41;;;20.90;55.74
39449;BME280;25151;45.566;9.382;2023-03-23T14:24:10;99506.41;;;20.90;55.52
39449;BME280;25151;45.566;9.382;2023-03-23T14:27:23;99496.16;;;20.87;55.82
39449;BME280;25151;45.566;9.382;2023-03-23T14:30:35;99502.53;;;20.87;55.76
39449;BME280;25151;45.566;9.382;2023-03-23T14:33:44;99500.16;;;20.86;55.83
39449;BME280;25151;45.566;9.382;2023-03-23T14:36:53;99488.66;;;20.84;55.58
39449;BME280;25151;45.566;9.382;2023-03-23T14:40:01;99494.56;;;20.86;55.85
39449;BME280;25151;45.566;9.382;2023-03-23T14:43:10;99497.06;;;20.84;55.83
39449;BME280;25151;45.566;9.382;2023-03-23T14:46:17;99493.91;;;20.82;55.83
39449;BME280;25151;45.566;9.382;2023-03-23T14:49:38;99499.06;;;20.83;55.83
39449;BME280;25151;45.566;9.382;2023-03-23T14:52:41;99490.81;;;20.80;55.50
39449;BME280;25151;45.566;9.382;2023-03-23T14:55:53;99490.66;;;20.83;55.54
39449;BME280;25151;45.566;9.382;2023-03-23T14:59:04;99485.19;;;20.80;55.42
39449;BME280;25151;45.566;9.382;2023-03-23T15:02:20;99495.63;;;20.79;55.69
39449;BME280;25151;45.566;9.382;2023-03-23T15:05:31;99496.41;;;20.80;55.75
39449;BME280;25151;45.566;9.382;2023-03-23T15:08:39;99493.28;;;20.78;55.50
39449;BME280;25151;45.566;9.382;2023-03-23T15:11:53;99497.31;;;20.77;55.83
39449;BME280;25151;45.566;9.382;2023-03-23T15:18:34;99494.53;;;20.77;55.75
39449;BME280;25151;45.566;9.382;2023-03-23T15:22:23;99488.28;;;20.73;55.83
39449;BME280;25151;45.566;9.382;2023-03-23T15:25:33;99494.84;;;20.79;55.60
39449;BME280;25151;45.566;9.382;2023-03-23T15:28:41;99503.25;;;20.79;55.88
39449;BME280;25151;45.566;9.382;2023-03-23T15:31:51;99494.84;;;20.79;55.70
39449;BME280;25151;45.566;9.382;2023-03-23T15:35:04;99495.75;;;20.76;55.70
39449;BME280;25151;45.566;9.382;2023-03-23T15:38:30;99505.41;;;20.75;55.98
39449;BME280;25151;45.566;9.382;2023-03-23T15:41:54;99501.03;;;20.74;55.69
39449;BME280;25151;45.566;9.382;2023-03-23T15:45:26;99489.50;;;20.72;56.06
39449;BME280;25151;45.566;9.382;2023-03-23T15:49:08;99486.72;;;20.72;55.89
39449;BME280;25151;45.566;9.382;2023-03-23T15:52:09;99482.31;;;20.71;55.77
39449;BME280;25151;45.566;9.382;2023-03-23T15:55:35;99476.28;;;20.72;55.78
39449;BME280;25151;45.566;9.382;2023-03-23T15:58:48;99476.72;;;20.71;56.12
39449;BME280;25151;45.566;9.382;2023-03-23T16:01:54;99478.31;;;20.72;55.81
39449;BME280;25151;45.566;9.382;2023-03-23T16:05:03;99473.91;;;20.71;56.02
39449;BME280;25151;45.566;9.382;2023-03-23T16:08:08;99486.06;;;20.68;56.00
39449;BME280;25151;45.566;9.382;2023-03-23T16:11:14;99478.88;;;20.67;56.08
39449;BME280;25151;45.566;9.382;2023-03-23T16:14:16;99485.72;;;20.66;55.69
39449;BME280;25151;45.566;9.382;2023-03-23T16:17:19;99498.50;;;20.67;55.73
39449;BME280;25151;45.566;9.382;2023-03-23T16:20:24;99496.94;;;20.66;55.97
39449;BME280;25151;45.566;9.382;2023-03-23T16:23:26;99489.00;;;20.64;55.90
39449;BME280;25151;45.566;9.382;2023-03-23T16:26:29;99488.22;;;20.63;55.94
39449;BME280;25151;45.566;9.382;2023-03-23T16:29:33;99489.78;;;20.65;55.90
39449;BME280;25151;45.566;9.382;2023-03-23T16:32:37;99495.38;;;20.65;56.21
39449;BME280;25151;45.566;9.382;2023-03-23T16:35:41;99493.81;;;20.63;55.92
39449;BME280;25151;45.566;9.382;2023-03-23T16:38:48;99488.22;;;20.63;56.00
39449;BME280;25151;45.566;9.382;2023-03-23T16:41:52;99481.19;;;20.59;55.95
39449;BME280;25151;45.566;9.382;2023-03-23T16:44:56;99491.47;;;20.62;56.16
39449;BME280;25151;45.566;9.382;2023-03-23T16:47:59;99491.94;;;20.60;56.03
39449;BME280;25151;45.566;9.382;2023-03-23T16:51:04;99497.19;;;20.58;56.31
39449;BME280;25151;45.566;9.382;2023-03-23T16:54:07;99505.59;;;20.58;55.91
39449;BME280;25151;45.566;9.382;2023-03-23T16:57:11;99497.66;;;20.57;56.30
39449;BME280;25151;45.566;9.382;2023-03-23T17:00:18;99498.44;;;20.57;56.23
39449;BME280;25151;45.566;9.382;2023-03-23T17:03:25;99514.81;;;20.59;56.10
39449;BME280;25151;45.566;9.382;2023-03-23T17:06:30;99514.00;;;20.58;56.12
39449;BME280;25151;45.566;9.382;2023-03-23T17:09:40;99516.50;;;20.56;56.03
39449;BME280;25151;45.566;9.382;2023-03-23T17:12:45;99517.28;;;20.57;56.00
39449;BME280;25151;45.566;9.382;2023-03-23T17:15:55;99523.66;;;20.57;55.97
39449;BME280;25151;45.566;9.382;2023-03-23T17:19:00;99522.09;;;20.56;56.18
39449;BME280;25151;45.566;9.382;2023-03-23T17:22:08;99518.97;;;20.54;56.11
39449;BME280;25151;45.566;9.382;2023-03-23T17:25:12;99526.91;;;20.56;56.29
39449;BME280;25151;45.566;9.382;2023-03-23T17:28:18;99517.41;;;20.53;56.01
39449;BME280;25151;45.566;9.382;2023-03-23T17:31:23;99518.19;;;20.54;56.13
39449;BME280;25151;45.566;9.382;2023-03-23T17:34:31;99528.59;;;20.53;56.23
39449;BME280;25151;45.566;9.382;2023-03-23T17:37:37;99524.25;;;20.52;56.22
39449;BME280;25151;45.566;9.382;2023-03-23T17:40:45;99541.06;;;20.52;56.24
39449;BME280;25151;45.566;9.382;2023-03-23T17:43:50;99550.22;;;20.53;56.32
39449;BME280;25151;45.566;9.382;2023-03-23T17:46:55;99549.47;;;20.52;56.49
39449;BME280;25151;45.566;9.382;2023-03-23T17:50:04;99551.91;;;20.50;56.23
39449;BME280;25151;45.566;9.382;2023-03-23T17:53:08;99566.25;;;20.52;56.32
39449;BME280;25151;45.566;9.382;2023-03-23T17:56:12;99564.72;;;20.51;56.96
39449;BME280;25151;45.566;9.382;2023-03-23T17:59:16;99573.41;;;20.53;56.63
39449;BME280;25151;45.566;9.382;2023-03-23T18:02:20;99568.72;;;20.50;56.47
39449;BME280;25151;45.566;9.382;2023-03-23T18:05:24;99573.09;;;20.51;56.52
39449;BME280;25151;45.566;9.382;2023-03-23T18:08:30;99571.53;;;20.50;56.63